Time;durP1;ratioP1;P1;durP2;ratioP2;P2;SDS_P1;SDS_P2;PMS_P1;PMS_P2;Temp;Humidity;BMP_temperature;BMP_pressure;BME280_temperature;BME280_humidity;BME280_pressure;Samples;Min_cycle;Max_cycle;Signal;HPM_P1;HPM_P2
2022/09/13 00:01:22;;;;;;;0.87;0.87;;;;;;;15.34;87.25;95213.69;4379264;32;20226;-60
2022/09/13 00:03:47;;;;;;;1.10;1.10;;;;;;;15.14;87.34;95211.78;4390916;32;20237;-59
2022/09/13 00:06:17;;;;;;;0.90;0.90;;;;;;;15.00;87.13;95203.97;4401861;32;20180;-59
2022/09/13 00:08:45;;;;;;;0.60;0.60;;;;;;;14.78;88.06;95204.25;4395615;32;20268;-59
2022/09/13 00:11:20;;;;;;;0.53;0.53;;;;;;;14.97;89.43;95209.97;4386267;32;20184;-59
2022/09/13 00:13:48;;;;;;;0.50;0.50;;;;;;;15.21;89.09;95197.88;4393461;32;20184;-59
2022/09/13 00:16:36;;;;;;;0.97;0.97;;;;;;;15.36;90.04;95200.00;4393012;32;20180;-59
2022/09/13 00:19:01;;;;;;;1.03;1.03;;;;;;;15.38;88.67;95190.50;4390698;32;20240;-59
2022/09/13 00:21:27;;;;;;;1.00;1.00;;;;;;;15.42;88.60;95190.66;4397202;32;20180;-59
2022/09/13 00:23:54;;;;;;;0.43;0.43;;;;;;;15.49;87.83;95188.25;4370381;32;20189;-64
2022/09/13 00:26:24;;;;;;;1.13;0.77;;;;;;;15.46;87.59;95187.00;4398394;32;20188;-59
2022/09/13 00:28:52;;;;;;;0.60;0.60;;;;;;;15.41;87.37;95179.16;4388302;32;20294;-59
2022/09/13 00:31:20;;;;;;;2.20;1.20;;;;;;;15.33;87.70;95185.38;4400714;32;20188;-59
2022/09/13 00:33:47;;;;;;;0.53;0.53;;;;;;;15.44;87.19;95180.41;4398499;32;20213;-59
2022/09/13 00:36:14;;;;;;;0.40;0.40;;;;;;;15.36;87.69;95179.38;4363048;32;20307;-59
2022/09/13 00:38:40;;;;;;;0.53;0.53;;;;;;;15.33;87.93;95168.56;4394698;32;20202;-58
2022/09/13 00:41:13;;;;;;;0.73;0.73;;;;;;;15.39;87.89;95170.69;4391795;32;20203;-59
2022/09/13 00:43:51;;;;;;;0.80;0.80;;;;;;;15.28;88.34;95169.53;4390368;32;20187;-58
2022/09/13 00:46:24;;;;;;;0.50;0.50;;;;;;;15.26;88.47;95169.06;4414274;32;20198;-59
2022/09/13 00:48:56;;;;;;;0.60;0.60;;;;;;;15.36;87.23;95166.03;4372744;32;20201;-58
2022/09/13 00:51:22;;;;;;;1.10;0.90;;;;;;;15.43;87.16;95168.94;4388414;32;20184;-67
2022/09/13 00:53:58;;;;;;;0.30;0.30;;;;;;;15.44;87.90;95175.06;4399978;32;20185;-59
2022/09/13 00:56:39;;;;;;;0.30;0.30;;;;;;;15.32;88.23;95169.66;4386762;32;20199;-59
2022/09/13 00:59:13;;;;;;;0.40;0.40;;;;;;;15.13;87.64;95181.59;4389581;32;20195;-59
2022/09/13 01:01:51;;;;;;;0.47;0.47;;;;;;;15.17;88.31;95172.94;4363644;32;20192;-59
2022/09/13 01:04:19;;;;;;;1.00;1.00;;;;;;;15.19;88.06;95173.38;4378906;32;20188;-59
2022/09/13 01:06:48;;;;;;;0.50;0.50;;;;;;;15.00;87.82;95168.47;4381269;32;20176;-59
2022/09/13 01:09:14;;;;;;;0.30;0.30;;;;;;;15.20;88.00;95169.59;4391630;32;20270;-59
2022/09/13 01:11:57;;;;;;;0.70;0.70;;;;;;;15.11;88.07;95162.44;4367169;32;20180;-59
2022/09/13 01:14:27;;;;;;;0.70;0.70;;;;;;;15.13;87.15;95154.09;4332380;32;20177;-64
2022/09/13 01:16:53;;;;;;;1.17;1.07;;;;;;;14.86;87.74;95146.56;4381761;32;20246;-60
2022/09/13 01:19:19;;;;;;;0.60;0.60;;;;;;;15.00;88.90;95141.75;4366708;32;20188;-59
2022/09/13 01:22:36;;;;;;;0.47;0.47;;;;;;;15.13;88.53;95148.75;4380621;32;20212;-59
2022/09/13 01:25:37;;;;;;;1.00;0.93;;;;;;;15.04;87.92;95138.13;4326206;32;20288;-59
2022/09/13 01:28:37;;;;;;;0.83;0.77;;;;;;;15.33;88.42;95131.13;4369072;32;20183;-59
2022/09/13 01:31:24;;;;;;;0.53;0.53;;;;;;;15.18;87.76;95137.06;4371138;32;20252;-59
2022/09/13 01:34:05;;;;;;;0.70;0.70;;;;;;;15.05;88.96;95126.31;4389037;32;20225;-59
2022/09/13 01:36:52;;;;;;;0.37;0.37;;;;;;;14.86;87.89;95138.56;4374918;32;20255;-59
2022/09/13 01:39:57;;;;;;;0.33;0.33;;;;;;;15.11;88.72;95124.25;4400471;32;20234;-59
2022/09/13 01:42:46;;;;;;;0.63;0.63;;;;;;;15.04;87.87;95123.97;4386578;32;20266;-59
2022/09/13 01:45:35;;;;;;;0.47;0.47;;;;;;;14.91;89.08;95133.03;4393733;32;20227;-60
2022/09/13 01:48:19;;;;;;;0.80;0.80;;;;;;;14.86;88.73;95127.88;4392246;32;20227;-59
2022/09/13 01:50:59;;;;;;;0.47;0.47;;;;;;;14.86;88.05;95127.88;4346344;32;20196;-59
2022/09/13 01:53:43;;;;;;;0.70;0.70;;;;;;;14.91;88.24;95123.13;4384357;32;20248;-59
2022/09/13 01:56:19;;;;;;;0.27;0.27;;;;;;;14.98;88.18;95123.37;4393340;32;20211;-59
2022/09/13 01:59:11;;;;;;;0.73;0.73;;;;;;;15.01;87.76;95120.06;4395938;32;20188;-59
2022/09/13 02:01:45;;;;;;;0.73;0.50;;;;;;;14.93;89.09;95128.16;4368509;32;20192;-59
2022/09/13 02:04:19;;;;;;;0.67;0.67;;;;;;;15.07;88.78;95123.31;4384826;32;20223;-59
2022/09/13 02:07:14;;;;;;;0.47;0.47;;;;;;;14.95;88.33;95120.59;4375077;32;20196;-60
2022/09/13 02:09:46;;;;;;;0.67;0.67;;;;;;;14.97;88.20;95118.34;4400008;32;20210;-59
2022/09/13 02:12:20;;;;;;;10.83;0.97;;;;;;;14.82;88.96;95126.97;4400166;32;20263;-59
2022/09/13 02:15:09;;;;;;;0.37;0.37;;;;;;;14.94;89.26;95130.50;4375713;32;20211;-59
2022/09/13 02:17:38;;;;;;;0.60;0.60;;;;;;;14.95;88.13;95126.72;4386278;32;20195;-59
2022/09/13 02:20:22;;;;;;;0.63;0.63;;;;;;;15.08;88.49;95115.00;4399975;32;20189;-59
2022/09/13 02:22:55;;;;;;;0.50;0.50;;;;;;;15.09;88.91;95119.22;4379173;32;20185;-59
2022/09/13 02:25:23;;;;;;;0.60;0.60;;;;;;;15.08;88.46;95120.34;4346673;32;20215;-59
2022/09/13 02:27:57;;;;;;;0.10;0.10;;;;;;;14.84;87.86;95122.84;4408026;32;20260;-59
2022/09/13 02:30:24;;;;;;;0.90;0.90;;;;;;;14.92;88.92;95127.38;4405386;32;20195;-60
2022/09/13 02:33:00;;;;;;;0.93;0.63;;;;;;;15.00;88.12;95128.41;4397631;32;20183;-60
2022/09/13 02:35:32;;;;;;;0.70;0.70;;;;;;;15.02;88.81;95129.63;4409079;32;20191;-66
2022/09/13 02:38:07;;;;;;;0.40;0.40;;;;;;;15.11;88.18;95122.34;4383864;32;20184;-59
2022/09/13 02:40:52;;;;;;;0.43;0.43;;;;;;;14.94;87.67;95135.06;4385296;32;20283;-59
2022/09/13 02:43:38;;;;;;;0.30;0.30;;;;;;;14.93;88.62;95128.94;4376651;32;20191;-59
2022/09/13 02:46:14;;;;;;;0.70;0.50;;;;;;;14.90;88.20;95132.25;4391061;32;20196;-60
2022/09/13 02:49:04;;;;;;;0.37;0.30;;;;;;;14.97;87.31;95129.81;4392566;32;20195;-60
2022/09/13 02:52:05;;;;;;;0.30;0.30;;;;;;;14.99;87.57;95129.50;4370949;32;20184;-59
2022/09/13 02:55:20;;;;;;;0.60;0.60;;;;;;;14.87;88.06;95134.78;4362865;32;20197;-59
2022/09/13 02:57:59;;;;;;;0.63;0.63;;;;;;;14.90;88.84;95129.59;4365513;32;20185;-59
2022/09/13 03:00:25;;;;;;;0.30;0.30;;;;;;;14.79;88.93;95139.06;4348906;32;20184;-59
2022/09/13 03:02:53;;;;;;;3.80;1.10;;;;;;;14.70;88.27;95138.34;4366419;32;20273;-59
2022/09/13 03:05:19;;;;;;;2.00;0.67;;;;;;;14.83;88.11;95134.66;4366888;32;20202;-59
2022/09/13 03:07:46;;;;;;;0.67;0.67;;;;;;;14.82;89.21;95141.09;4379584;32;20185;-59
2022/09/13 03:10:14;;;;;;;0.50;0.50;;;;;;;14.91;88.76;95133.81;4364374;32;20232;-59
2022/09/13 03:12:51;;;;;;;0.33;0.33;;;;;;;14.93;88.54;95126.25;4387614;32;20203;-59
2022/09/13 03:15:26;;;;;;;7.33;0.37;;;;;;;14.78;88.27;95134.84;4402985;32;20197;-59
2022/09/13 03:18:16;;;;;;;0.70;0.70;;;;;;;14.69;89.14;95134.12;4396342;32;20187;-59
2022/09/13 03:21:17;;;;;;;0.37;0.37;;;;;;;14.66;88.74;95140.88;4388836;32;20220;-59
2022/09/13 03:24:17;;;;;;;0.80;0.80;;;;;;;14.68;88.16;95135.22;4396384;32;20259;-59
2022/09/13 03:27:15;;;;;;;0.27;0.27;;;;;;;14.88;88.29;95139.81;4368912;32;21332;-59
2022/09/13 03:29:59;;;;;;;0.47;0.47;;;;;;;14.78;88.96;95142.84;4384126;32;20429;-59
2022/09/13 03:32:50;;;;;;;0.50;0.50;;;;;;;14.90;88.17;95124.25;4376154;32;20197;-59
2022/09/13 03:35:51;;;;;;;0.10;0.10;;;;;;;14.63;88.09;95132.72;4402635;32;20372;-59
2022/09/13 03:39:16;;;;;;;0.30;0.30;;;;;;;14.74;89.63;95131.28;4376328;32;20187;-59
2022/09/13 03:41:51;;;;;;;0.40;0.40;;;;;;;14.71;88.39;95122.00;4361890;32;20300;-59
2022/09/13 03:44:20;;;;;;;0.60;0.60;;;;;;;14.52;87.48;95118.22;4388972;32;20196;-59
2022/09/13 03:46:50;;;;;;;0.53;0.53;;;;;;;14.57;89.32;95110.00;4366935;32;20208;-59
2022/09/13 03:49:18;;;;;;;0.47;0.47;;;;;;;14.63;88.11;95112.16;4369553;32;20200;-60
2022/09/13 03:51:48;;;;;;;4.90;0.60;;;;;;;14.62;88.27;95115.16;4387313;32;20193;-60
2022/09/13 03:54:22;;;;;;;0.93;0.93;;;;;;;14.46;87.76;95130.94;4389271;32;20212;-60
2022/09/13 03:57:11;;;;;;;1.13;1.03;;;;;;;14.64;89.25;95128.97;4396756;32;20266;-59
2022/09/13 03:59:40;;;;;;;0.40;0.40;;;;;;;14.67;89.16;95129.09;4398599;32;20210;-60
2022/09/13 04:02:10;;;;;;;0.30;0.30;;;;;;;14.52;89.13;95136.88;4412508;32;20188;-60
2022/09/13 04:04:39;;;;;;;0.70;0.70;;;;;;;14.68;89.34;95143.22;4389636;32;20196;-59
2022/09/13 04:07:07;;;;;;;0.60;0.60;;;;;;;14.64;89.40;95135.09;4331221;32;20181;-59
2022/09/13 04:09:32;;;;;;;0.20;0.20;;;;;;;14.55;89.08;95128.25;4395934;32;20216;-59
2022/09/13 04:11:58;;;;;;;0.40;0.40;;;;;;;14.69;88.79;95134.91;4371179;32;20297;-59
2022/09/13 04:14:25;;;;;;;0.63;0.63;;;;;;;14.62;88.47;95128.50;4394177;32;20202;-59
2022/09/13 04:16:55;;;;;;;0.40;0.40;;;;;;;14.64;89.02;95131.63;4397554;32;20233;-59
2022/09/13 04:19:23;;;;;;;0.87;0.33;;;;;;;14.51;88.36;95130.00;4366455;32;20267;-59
2022/09/13 04:21:51;;;;;;;0.70;0.70;;;;;;;14.70;88.30;95131.13;4386755;32;20187;-59
2022/09/13 04:24:18;;;;;;;0.50;0.50;;;;;;;14.72;88.89;95122.78;4372790;32;20184;-59
2022/09/13 04:26:48;;;;;;;0.50;0.50;;;;;;;14.76;88.79;95126.34;4380982;32;20211;-59
2022/09/13 04:29:16;;;;;;;0.50;0.50;;;;;;;14.73;88.03;95130.47;4379640;32;20267;-59
2022/09/13 04:31:44;;;;;;;0.73;0.73;;;;;;;14.81;88.66;95130.72;4401007;32;20276;-59
2022/09/13 04:34:11;;;;;;;0.70;0.70;;;;;;;14.78;87.99;95134.84;4393423;32;20185;-59
2022/09/13 04:36:38;;;;;;;0.70;0.63;;;;;;;14.62;88.46;95128.50;4388047;32;20202;-59
2022/09/13 04:39:06;;;;;;;0.30;0.30;;;;;;;14.64;88.17;95131.63;4401686;32;20191;-59
2022/09/13 04:41:33;;;;;;;1.30;0.73;;;;;;;14.72;88.30;95134.25;4387700;32;20188;-59
2022/09/13 04:44:00;;;;;;;0.20;0.20;;;;;;;14.77;87.62;95130.59;4377672;32;20272;-59
2022/09/13 04:46:28;;;;;;;3.50;0.83;;;;;;;14.77;88.49;95133.25;4387319;32;20184;-59
2022/09/13 04:48:54;;;;;;;2.43;0.70;;;;;;;14.84;88.38;95130.87;4391895;32;20183;-59
2022/09/13 04:51:24;;;;;;;1.10;0.43;;;;;;;14.70;88.93;95136.47;4393169;32;20207;-60
2022/09/13 04:53:55;;;;;;;0.30;0.30;;;;;;;14.77;88.23;95133.25;4381845;32;20192;-60
2022/09/13 04:56:26;;;;;;;0.57;0.50;;;;;;;14.81;87.93;95142.19;4379328;32;20189;-60
2022/09/13 04:58:53;;;;;;;1.40;0.83;;;;;;;14.73;89.24;95140.38;4369556;32;20243;-60
2022/09/13 05:01:22;;;;;;;0.77;0.77;;;;;;;14.76;88.12;95139.72;4390809;32;20206;-60
2022/09/13 05:03:52;;;;;;;0.87;0.87;;;;;;;14.87;88.76;95142.81;4397813;32;20192;-60
2022/09/13 05:06:18;;;;;;;0.27;0.27;;;;;;;14.85;88.22;95140.44;4388662;32;20196;-60
2022/09/13 05:08:51;;;;;;;0.43;0.43;;;;;;;14.79;87.83;95145.19;4371895;32;20191;-59
2022/09/13 05:11:17;;;;;;;0.83;0.83;;;;;;;14.68;87.66;95138.69;4386767;32;20242;-60
2022/09/13 05:13:42;;;;;;;0.07;0.07;;;;;;;14.81;88.27;95142.19;4375916;32;20271;-60
2022/09/13 05:16:09;;;;;;;0.37;0.37;;;;;;;14.78;88.06;95142.84;4376209;32;20185;-60
2022/09/13 05:18:35;;;;;;;2.77;1.03;;;;;;;14.80;87.86;95145.97;4360904;32;20247;-60
2022/09/13 05:21:03;;;;;;;0.87;0.77;;;;;;;14.73;88.33;95146.50;4353619;32;20203;-61
2022/09/13 05:23:31;;;;;;;0.23;0.23;;;;;;;14.85;88.47;95143.13;4357296;32;20245;-60
2022/09/13 05:26:02;;;;;;;0.63;0.63;;;;;;;14.92;87.72;95138.06;4388317;32;20188;-60
2022/09/13 05:28:30;;;;;;;8.73;1.47;;;;;;;14.92;87.72;95135.38;4391144;32;20231;-60
2022/09/13 05:30:58;;;;;;;0.53;0.47;;;;;;;15.08;87.38;95138.25;4383241;32;20199;-60
2022/09/13 05:33:32;;;;;;;0.30;0.30;;;;;;;15.03;87.76;95160.59;4387347;32;20264;-60
2022/09/13 05:35:59;;;;;;;0.50;0.50;;;;;;;15.08;87.85;95160.41;4393061;32;20185;-60
2022/09/13 05:38:24;;;;;;;1.43;0.67;;;;;;;15.16;86.41;95152.66;4378486;32;20202;-60
2022/09/13 05:40:55;;;;;;;0.40;0.40;;;;;;;15.15;87.10;95156.44;4389320;32;20204;-60
2022/09/13 05:43:24;;;;;;;0.43;0.43;;;;;;;15.17;86.80;95155.00;4386918;32;20181;-60
2022/09/13 05:45:51;;;;;;;0.57;0.57;;;;;;;15.23;87.03;95147.56;4367019;32;20258;-60
2022/09/13 05:48:16;;;;;;;0.70;0.70;;;;;;;15.24;87.02;95149.12;4368944;32;20218;-60
2022/09/13 05:50:43;;;;;;;0.97;0.97;;;;;;;15.25;87.07;95146.13;4365503;32;22780;-60
2022/09/13 05:53:09;;;;;;;0.73;0.73;;;;;;;15.34;86.86;95143.41;4390064;32;20189;-60
2022/09/13 05:55:34;;;;;;;0.77;0.77;;;;;;;15.20;87.35;95143.66;4370774;32;20211;-60
2022/09/13 05:58:03;;;;;;;2.27;2.17;;;;;;;15.32;87.48;95143.72;4382868;32;20192;-60
2022/09/13 06:00:30;;;;;;;0.63;0.63;;;;;;;15.35;87.15;95144.97;4366286;32;20222;-61
2022/09/13 06:02:56;;;;;;;0.80;0.80;;;;;;;15.39;86.84;95151.19;4412751;32;20259;-60
2022/09/13 06:05:21;;;;;;;0.53;0.53;;;;;;;15.45;86.18;95155.25;4404309;32;20188;-60
2022/09/13 06:07:48;;;;;;;0.80;0.80;;;;;;;15.39;85.78;95151.19;4383008;32;20257;-60
2022/09/13 06:10:16;;;;;;;0.50;0.50;;;;;;;15.41;87.54;95149.75;4395288;32;20215;-60
2022/09/13 06:12:42;;;;;;;0.50;0.50;;;;;;;15.45;86.27;95142.66;4388323;32;20180;-61
2022/09/13 06:15:10;;;;;;;1.23;0.90;;;;;;;15.46;85.88;95146.13;4387973;32;20193;-53
2022/09/13 06:17:36;;;;;;;5.83;1.90;;;;;;;15.52;86.03;95139.47;4383779;32;20223;-54
2022/09/13 06:20:02;;;;;;;4.73;0.57;;;;;;;16.02;89.79;95135.81;4402527;32;20188;-55
2022/09/13 06:22:32;;;;;;;0.80;0.80;;;;;;;16.39;85.80;95136.66;4385232;32;20232;-52
2022/09/13 06:24:59;;;;;;;0.50;0.50;;;;;;;16.70;82.24;95147.63;4395991;32;20275;-54
2022/09/13 06:27:30;;;;;;;0.30;0.30;;;;;;;16.95;80.05;95155.63;4356704;32;20245;-62
2022/09/13 06:29:57;;;;;;;0.70;0.70;;;;;;;17.16;78.61;95151.69;4394213;32;20194;-51
2022/09/13 06:32:22;;;;;;;1.57;1.47;;;;;;;17.33;80.28;95149.84;4399219;32;20184;-61
2022/09/13 06:34:50;;;;;;;0.30;0.30;;;;;;;17.39;79.63;95135.88;4392879;32;20259;-51
2022/09/13 06:37:15;;;;;;;19.43;1.30;;;;;;;17.45;78.19;95141.78;4392615;32;20185;-50
2022/09/13 06:39:41;;;;;;;3.20;1.10;;;;;;;17.52;77.12;95142.72;4389662;32;20192;-51
2022/09/13 06:42:08;;;;;;;1.23;1.10;;;;;;;17.58;76.25;95135.22;4403821;32;20203;-56
2022/09/13 06:44:35;;;;;;;1.30;1.20;;;;;;;17.57;76.47;95139.03;4398303;32;20190;-53
2022/09/13 06:47:00;;;;;;;0.50;0.50;;;;;;;17.59;76.25;95139.47;4362330;32;20185;-54
2022/09/13 06:49:28;;;;;;;0.87;0.87;;;;;;;17.57;76.25;95140.94;4386341;32;20294;-52
2022/09/13 06:51:54;;;;;;;2.30;1.47;;;;;;;17.59;76.50;95147.53;4386699;32;20218;-56
2022/09/13 06:54:22;;;;;;;1.63;1.43;;;;;;;17.77;80.65;95143.44;4400617;32;20176;-53
2022/09/13 06:56:49;;;;;;;2.27;1.47;;;;;;;17.82;81.13;95137.06;4386778;32;20244;-54
2022/09/13 06:59:14;;;;;;;7.93;1.13;;;;;;;17.94;80.72;95146.94;4390206;32;20255;-51
2022/09/13 07:01:43;;;;;;;1.80;0.90;;;;;;;17.98;80.46;95142.44;4367774;32;20197;-52
2022/09/13 07:04:11;;;;;;;1.03;1.03;;;;;;;17.95;79.52;95138.53;4366234;32;20229;-48
2022/09/13 07:06:41;;;;;;;3.63;1.97;;;;;;;17.94;78.54;95136.19;4380709;32;20187;-50
2022/09/13 07:09:14;;;;;;;1.70;0.50;;;;;;;17.95;78.97;95133.16;4375215;32;20198;-52
2022/09/13 07:11:41;;;;;;;0.73;0.73;;;;;;;17.96;78.13;95129.34;4382125;32;20223;-50
2022/09/13 07:14:09;;;;;;;3.50;1.33;;;;;;;17.99;78.42;95125.22;4369833;32;20215;-48
2022/09/13 07:16:39;;;;;;;2.73;0.77;;;;;;;17.91;77.96;95131.50;4393014;32;20180;-50
2022/09/13 07:19:10;;;;;;;0.90;0.70;;;;;;;17.87;78.63;95126.06;4387753;32;20222;-51
2022/09/13 07:21:36;;;;;;;1.63;1.33;;;;;;;17.94;78.28;95136.19;4378507;32;20225;-52
2022/09/13 07:24:01;;;;;;;0.30;0.30;;;;;;;18.02;78.79;95148.69;4363497;32;20197;-63
2022/09/13 07:26:28;;;;;;;0.93;0.83;;;;;;;18.05;75.34;95156.06;4380510;32;20295;-63
2022/09/13 07:28:59;;;;;;;0.50;0.50;;;;;;;17.84;74.15;95149.00;4411678;32;20184;-62
2022/09/13 07:31:30;;;;;;;0.93;0.93;;;;;;;17.69;73.00;95148.94;4356714;32;20268;-61
2022/09/13 07:33:59;;;;;;;2.77;1.20;;;;;;;17.54;74.05;95139.72;4383967;32;20207;-68
2022/09/13 07:36:29;;;;;;;2.00;1.37;;;;;;;17.49;74.12;95142.62;4385550;32;20188;-61
2022/09/13 07:38:56;;;;;;;1.43;1.30;;;;;;;17.39;73.97;95153.84;4394324;32;20196;-64
2022/09/13 07:41:24;;;;;;;0.60;0.60;;;;;;;17.40;74.59;95145.47;4350542;32;20188;-62
2022/09/13 07:43:54;;;;;;;5.70;2.57;;;;;;;17.45;73.63;95136.41;4361526;32;20267;-63
2022/09/13 07:46:31;;;;;;;0.83;0.83;;;;;;;17.43;73.36;95133.28;4402597;32;20206;-62
2022/09/13 07:49:10;;;;;;;1.30;1.20;;;;;;;17.43;73.20;95138.66;4398047;32;20203;-63
2022/09/13 07:51:39;;;;;;;1.70;1.60;;;;;;;17.36;74.03;95143.81;4393260;32;20244;-61
2022/09/13 07:54:10;;;;;;;0.97;0.70;;;;;;;17.34;74.39;95141.47;4388509;32;20185;-63
2022/09/13 07:56:37;;;;;;;1.13;1.13;;;;;;;17.42;74.09;95145.91;4385316;32;20171;-63
2022/09/13 07:59:06;;;;;;;0.70;0.70;;;;;;;17.42;74.76;95148.59;4345281;32;20232;-63
2022/09/13 08:01:49;;;;;;;0.50;0.50;;;;;;;17.43;74.68;95149.38;4371155;32;20226;-63
2022/09/13 08:04:17;;;;;;;1.43;0.33;;;;;;;17.49;74.93;95148.78;4392571;32;20323;-61
2022/09/13 08:06:45;;;;;;;1.37;0.57;;;;;;;17.54;73.87;95139.72;4401238;32;20265;-62
2022/09/13 08:09:13;;;;;;;0.43;0.43;;;;;;;17.62;72.90;95140.69;4393788;32;20176;-63
2022/09/13 08:11:44;;;;;;;0.30;0.30;;;;;;;17.59;72.79;95136.78;4389338;32;20207;-62
2022/09/13 08:14:12;;;;;;;0.70;0.70;;;;;;;17.74;71.79;95135.28;4388006;32;20188;-60
2022/09/13 08:16:38;;;;;;;0.70;0.70;;;;;;;17.80;71.43;95140.06;4384783;32;20195;-61
2022/09/13 08:19:07;;;;;;;0.37;0.37;;;;;;;17.90;71.38;95146.06;4396880;32;20192;-63
2022/09/13 08:21:38;;;;;;;0.40;0.40;;;;;;;18.01;71.66;95147.13;4379167;32;20220;-62
2022/09/13 08:24:17;;;;;;;1.20;0.50;;;;;;;18.09;70.76;95146.16;4365988;32;20223;-63
2022/09/13 08:26:44;;;;;;;0.23;0.23;;;;;;;18.18;70.66;95136.06;4384886;32;23284;-63
2022/09/13 08:29:13;;;;;;;0.50;0.50;;;;;;;18.29;72.21;95133.66;4388297;32;20188;-63
2022/09/13 08:31:39;;;;;;;0.70;0.70;;;;;;;18.29;70.64;95134.41;4388389;32;20254;-63
2022/09/13 08:34:11;;;;;;;0.47;0.47;;;;;;;18.31;70.90;95142.88;4377673;32;20192;-63
2022/09/13 08:36:37;;;;;;;0.80;0.80;;;;;;;18.34;71.22;95144.09;4382191;32;20191;-62
2022/09/13 08:39:03;;;;;;;0.40;0.40;;;;;;;18.39;70.96;95144.63;4380508;32;20239;-63
2022/09/13 08:41:55;;;;;;;0.50;0.50;;;;;;;18.46;70.45;95136.75;4381699;32;20184;-63
2022/09/13 08:44:28;;;;;;;0.10;0.10;;;;;;;18.52;69.32;95135.34;4403562;32;20224;-61
2022/09/13 08:47:26;;;;;;;0.30;0.30;;;;;;;18.58;69.71;95137.78;4394347;32;20203;-62
2022/09/13 08:50:02;;;;;;;0.67;0.67;;;;;;;18.65;68.49;95133.38;4389304;32;20288;-64
2022/09/13 08:53:09;;;;;;;0.10;0.10;;;;;;;18.67;68.64;95146.47;4362929;32;20184;-63
2022/09/13 08:55:40;;;;;;;0.10;0.10;;;;;;;18.73;69.11;95142.38;4354830;32;20188;-61
2022/09/13 08:58:37;;;;;;;0.20;0.20;;;;;;;18.75;68.92;95135.53;4392499;32;20234;-63
2022/09/13 09:01:49;;;;;;;0.30;0.30;;;;;;;18.79;68.45;95133.69;4391084;32;20343;-63
2022/09/13 09:04:33;;;;;;;0.60;0.60;;;;;;;18.86;67.22;95127.72;4364068;32;20189;-62
2022/09/13 09:07:26;;;;;;;0.60;0.60;;;;;;;18.99;68.03;95131.06;4389441;32;20203;-62
2022/09/13 09:10:10;;;;;;;0.47;0.47;;;;;;;19.08;66.13;95129.75;4405389;32;20191;-61
2022/09/13 09:13:07;;;;;;;2.40;2.30;;;;;;;19.16;67.27;95125.25;4402233;32;20211;-62
2022/09/13 09:15:35;;;;;;;5.50;5.00;;;;;;;19.18;67.06;95125.69;4388288;32;20269;-61
2022/09/13 09:18:24;;;;;;;2.40;2.20;;;;;;;19.22;67.65;95129.25;4388861;32;20200;-61
2022/09/13 09:20:57;;;;;;;4.70;0.73;;;;;;;19.23;68.73;95125.44;4374442;32;20203;-60
2022/09/13 09:23:30;;;;;;;0.83;0.70;;;;;;;19.31;67.79;95131.75;4357242;32;20251;-71
2022/09/13 09:26:16;;;;;;;0.40;0.40;;;;;;;19.38;67.62;95132.66;4375091;32;20184;-62
2022/09/13 09:28:52;;;;;;;0.77;0.77;;;;;;;19.50;67.17;95126.38;4360531;32;20243;-63
2022/09/13 09:31:48;;;;;;;0.20;0.20;;;;;;;19.58;66.80;95122.69;4384916;32;20187;-63
2022/09/13 09:34:21;;;;;;;0.23;0.23;;;;;;;19.75;65.49;95124.16;4360772;32;20305;-62
2022/09/13 09:37:20;;;;;;;1.57;0.73;;;;;;;19.84;66.65;95122.81;4384810;32;20206;-63
2022/09/13 09:39:48;;;;;;;1.33;1.33;;;;;;;19.82;67.45;95121.59;4385929;32;20188;-63
2022/09/13 09:42:18;;;;;;;0.50;0.50;;;;;;;19.87;66.25;95111.31;4402724;32;20283;-61
2022/09/13 09:45:25;;;;;;;4.43;0.93;;;;;;;19.86;67.45;95117.84;4392183;32;20266;-63
2022/09/13 09:47:54;;;;;;;0.70;0.70;;;;;;;19.78;67.57;95113.47;4394836;32;20180;-62
2022/09/13 09:50:27;;;;;;;0.77;0.67;;;;;;;19.77;67.64;95111.91;4366696;32;20206;-63
2022/09/13 09:53:02;;;;;;;0.30;0.30;;;;;;;19.84;66.84;95109.34;4394917;32;20226;-62
2022/09/13 09:55:46;;;;;;;0.23;0.23;;;;;;;19.96;65.64;95116.47;4380690;32;20213;-63
2022/09/13 09:58:18;;;;;;;0.33;0.33;;;;;;;20.34;62.51;95122.91;4374568;32;20236;-63
2022/09/13 10:00:57;;;;;;;0.57;0.57;;;;;;;20.30;63.43;95116.69;4390179;32;20342;-63
2022/09/13 10:03:30;;;;;;;3.93;1.17;;;;;;;20.24;64.04;95108.09;4369877;32;20195;-64
2022/09/13 10:06:28;;;;;;;3.80;0.60;;;;;;;20.22;63.75;95095.00;4393717;32;20188;-62
2022/09/13 10:09:22;;;;;;;0.20;0.20;;;;;;;20.14;64.36;95087.16;4392550;32;20195;-69
2022/09/13 10:11:49;;;;;;;0.20;0.20;;;;;;;20.15;64.85;95083.34;4379028;32;20191;-60
2022/09/13 10:14:34;;;;;;;0.33;0.33;;;;;;;20.24;65.59;95089.25;4400768;32;20238;-59
2022/09/13 10:17:23;;;;;;;3.57;0.50;;;;;;;20.26;64.09;95084.28;4390235;32;20184;-60
2022/09/13 10:19:51;;;;;;;0.30;0.30;;;;;;;20.24;65.19;95073.06;4404974;32;20242;-61
2022/09/13 10:22:17;;;;;;;0.20;0.20;;;;;;;20.40;62.07;95079.13;4389552;32;20193;-62
2022/09/13 10:24:43;;;;;;;0.93;0.37;;;;;;;20.54;62.09;95087.47;4381816;32;20333;-59
2022/09/13 10:27:48;;;;;;;0.60;0.60;;;;;;;20.65;61.75;95078.72;4376921;32;20237;-60
2022/09/13 10:30:31;;;;;;;0.57;0.57;;;;;;;20.62;61.86;95076.75;4391651;32;20297;-61
2022/09/13 10:32:58;;;;;;;0.30;0.30;;;;;;;20.58;62.06;95069.37;4381240;32;20188;-61
2022/09/13 10:35:24;;;;;;;0.37;0.37;;;;;;;20.61;61.95;95061.72;4394377;32;20238;-61
2022/09/13 10:37:55;;;;;;;0.50;0.50;;;;;;;20.62;61.74;95063.28;4375526;32;20207;-61
2022/09/13 10:40:33;;;;;;;0.10;0.10;;;;;;;20.74;60.96;95063.09;4388984;32;20188;-61
2022/09/13 10:43:03;;;;;;;0.43;0.37;;;;;;;20.72;62.87;95063.44;4374222;32;20192;-61
2022/09/13 10:45:31;;;;;;;0.10;0.10;;;;;;;20.75;61.57;95061.94;4403675;32;20176;-61
2022/09/13 10:48:09;;;;;;;0.40;0.40;;;;;;;20.72;62.01;95062.66;4397153;32;20180;-61
2022/09/13 10:50:36;;;;;;;0.50;0.50;;;;;;;20.74;61.69;95063.09;4395647;32;20274;-61
2022/09/13 10:53:04;;;;;;;0.30;0.30;;;;;;;20.63;64.32;95062.13;4361222;32;20193;-61
2022/09/13 10:55:33;;;;;;;3.23;3.03;;;;;;;20.67;62.33;95063.75;4388034;32;20203;-61
2022/09/13 10:58:02;;;;;;;1.80;1.13;;;;;;;20.71;62.31;95058.41;4391808;32;20188;-61
2022/09/13 11:00:50;;;;;;;4.53;1.93;;;;;;;20.73;62.13;95058.84;4379390;32;20254;-61
2022/09/13 11:03:40;;;;;;;0.40;0.40;;;;;;;20.82;63.02;95056.63;4363794;32;20203;-61
2022/09/13 11:06:55;;;;;;;0.20;0.20;;;;;;;20.94;62.17;95059.12;4383955;32;20185;-61
2022/09/13 11:09:40;;;;;;;0.60;0.60;;;;;;;21.12;59.40;95049.31;4378843;32;20192;-61
2022/09/13 11:12:23;;;;;;;0.27;0.27;;;;;;;21.14;61.17;95043.56;4355602;32;20184;-61
2022/09/13 11:15:17;;;;;;;0.53;0.53;;;;;;;21.25;61.76;95042.56;4373252;32;20189;-62
2022/09/13 11:18:20;;;;;;;0.70;0.60;;;;;;;21.31;61.20;95051.12;4375394;32;20193;-61
2022/09/13 11:21:19;;;;;;;0.57;0.57;;;;;;;21.39;61.46;95043.88;4362057;32;20203;-61
2022/09/13 11:24:16;;;;;;;0.10;0.10;;;;;;;21.45;60.42;95035.06;4410920;32;20275;-61
2022/09/13 11:27:08;;;;;;;0.17;0.17;;;;;;;21.60;58.80;95036.00;4378099;32;20188;-61
2022/09/13 11:30:07;;;;;;;0.43;0.30;;;;;;;21.66;58.65;95033.72;4388674;32;20269;-61
2022/09/13 11:33:05;;;;;;;0.43;0.43;;;;;;;21.74;57.02;95041.53;4394610;32;20279;-61
2022/09/13 11:36:14;;;;;;;0.27;0.20;;;;;;;21.78;55.84;95031.56;4367393;32;20189;-62
2022/09/13 11:39:09;;;;;;;0.20;0.20;;;;;;;21.85;55.20;95037.00;4361685;32;20197;-61
2022/09/13 11:41:42;;;;;;;0.20;0.20;;;;;;;21.91;55.97;95034.75;4361721;32;20232;-61
2022/09/13 11:44:45;;;;;;;0.10;0.10;;;;;;;21.97;56.55;95032.50;4373531;32;20192;-61
2022/09/13 11:47:45;;;;;;;0.47;0.47;;;;;;;22.00;54.61;95031.75;4380766;32;20278;-61
2022/09/13 11:50:54;;;;;;;0.10;0.10;;;;;;;22.01;57.29;95039.50;4376637;32;20222;-61
2022/09/13 11:53:44;;;;;;;0.30;0.30;;;;;;;22.00;53.97;95037.16;4371541;32;20183;-61
2022/09/13 11:56:48;;;;;;;0.10;0.10;;;;;;;22.15;53.00;95033.44;4383960;32;20197;-60
2022/09/13 11:59:33;;;;;;;0.40;0.30;;;;;;;22.23;53.25;95035.06;4367906;32;20281;-46
2022/09/13 12:02:14;;;;;;;0.40;0.40;;;;;;;22.05;54.25;95028.72;4400560;32;20232;-50
2022/09/13 12:04:53;;;;;;;0.20;0.20;;;;;;;21.81;55.90;95027.34;4392008;32;20185;-51
2022/09/13 12:07:51;;;;;;;0.60;0.30;;;;;;;21.78;56.39;95031.56;4375561;32;20317;-49
2022/09/13 12:10:45;;;;;;;2.43;0.70;;;;;;;21.47;60.23;95038.19;4376761;32;20200;-47
2022/09/13 12:13:19;;;;;;;1.50;0.20;;;;;;;21.36;60.58;95037.31;4370033;32;20192;-53
2022/09/13 12:15:47;;;;;;;0.30;0.30;;;;;;;21.68;56.34;95040.31;4380169;32;20206;-50